Time;durP1;ratioP1;P1;durP2;ratioP2;P2;SDS_P1;SDS_P2;PMS_P1;PMS_P2;Temp;Humidity;BMP_temperature;BMP_pressure;BME280_temperature;BME280_humidity;BME280_pressure;Samples;Min_cycle;Max_cycle;Signal;HPM_P1;HPM_P2
2023/07/31 00:01:42;;;;;;;3.80;1.80;;;;;;;;;;5117394;28;20469;-76
2023/07/31 00:04:09;;;;;;;4.73;2.13;;;;;;;;;;5117450;28;20457;-76
2023/07/31 00:06:36;;;;;;;5.43;1.97;;;;;;;;;;5117095;28;20485;-76
2023/07/31 00:09:05;;;;;;;2.50;2.00;;;;;;;;;;5116963;28;20449;-76
2023/07/31 00:11:32;;;;;;;4.37;2.30;;;;;;;;;;5117058;28;20499;-76
2023/07/31 00:13:59;;;;;;;5.63;2.43;;;;;;;;;;5117085;28;20461;-76
2023/07/31 00:16:26;;;;;;;5.73;2.40;;;;;;;;;;5116953;28;20502;-76
2023/07/31 00:18:53;;;;;;;3.40;2.53;;;;;;;;;;5116903;28;20806;-76
2023/07/31 00:21:20;;;;;;;7.80;2.70;;;;;;;;;;5117267;28;20469;-76
2023/07/31 00:23:47;;;;;;;3.93;1.70;;;;;;;;;;5116812;28;20460;-76
2023/07/31 00:26:16;;;;;;;7.23;2.57;;;;;;;;;;5116919;28;20828;-75
2023/07/31 00:28:43;;;;;;;4.40;2.30;;;;;;;;;;5116700;28;20445;-76
2023/07/31 00:31:10;;;;;;;5.20;3.00;;;;;;;;;;5116974;28;20985;-75
2023/07/31 00:33:37;;;;;;;7.53;2.20;;;;;;;;;;5116714;28;20456;-76
2023/07/31 00:36:04;;;;;;;3.53;2.40;;;;;;;;;;5116569;28;20453;-75
2023/07/31 00:38:31;;;;;;;3.83;2.33;;;;;;;;;;5116477;28;20457;-74
2023/07/31 00:40:59;;;;;;;11.50;2.70;;;;;;;;;;5116516;28;20478;-74
2023/07/31 00:43:27;;;;;;;5.90;2.70;;;;;;;;;;5116218;28;20857;-74
2023/07/31 00:45:54;;;;;;;4.83;2.40;;;;;;;;;;5116272;28;21015;-74
2023/07/31 00:48:21;;;;;;;4.23;2.80;;;;;;;;;;5116380;28;20923;-77
2023/07/31 00:50:48;;;;;;;2.83;2.10;;;;;;;;;;5116395;28;20476;-76
2023/07/31 00:53:16;;;;;;;8.10;2.70;;;;;;;;;;5116365;28;20442;-76
2023/07/31 00:55:44;;;;;;;4.17;2.00;;;;;;;;;;5116460;28;20790;-76
2023/07/31 00:58:11;;;;;;;4.30;2.70;;;;;;;;;;5116233;28;20814;-76
2023/07/31 01:00:39;;;;;;;4.43;2.27;;;;;;;;;;5116228;28;20499;-76
2023/07/31 01:03:06;;;;;;;3.97;3.03;;;;;;;;;;5116409;28;20811;-76
2023/07/31 01:05:38;;;;;;;4.53;2.53;;;;;;;;;;5116101;28;20464;-75
2023/07/31 01:08:08;;;;;;;3.70;2.40;;;;;;;;;;5115849;28;20457;-75
2023/07/31 01:10:38;;;;;;;4.93;2.53;;;;;;;;;;5116003;28;20476;-76
2023/07/31 01:16:10;;;;;;;3.57;2.47;;;;;;;;;;5116060;28;20465;-75
2023/07/31 01:18:37;;;;;;;2.87;2.40;;;;;;;;;;5115754;28;20457;-75
2023/07/31 01:21:09;;;;;;;5.80;2.60;;;;;;;;;;5115723;28;20465;-76
2023/07/31 01:23:58;;;;;;;3.60;2.50;;;;;;;;;;5115842;28;20458;-74
2023/07/31 01:26:29;;;;;;;7.73;2.57;;;;;;;;;;5115730;28;20485;-75
2023/07/31 01:28:58;;;;;;;4.50;2.37;;;;;;;;;;5115398;28;20446;-76
2023/07/31 01:31:26;;;;;;;6.50;2.60;;;;;;;;;;5115683;28;20474;-76
2023/07/31 01:33:54;;;;;;;4.53;2.80;;;;;;;;;;5115559;28;20461;-76
2023/07/31 01:36:21;;;;;;;4.63;2.80;;;;;;;;;;5115516;28;20499;-77
2023/07/31 01:38:50;;;;;;;4.23;2.77;;;;;;;;;;5115231;28;20457;-75
2023/07/31 01:41:18;;;;;;;3.47;2.57;;;;;;;;;;5115677;28;20466;-76
2023/07/31 01:43:46;;;;;;;2.90;2.40;;;;;;;;;;5114775;28;20454;-76
2023/07/31 01:46:13;;;;;;;9.87;2.87;;;;;;;;;;5115327;28;20484;-76
2023/07/31 01:48:40;;;;;;;6.27;2.73;;;;;;;;;;5115115;28;20810;-76
2023/07/31 01:51:07;;;;;;;5.40;2.40;;;;;;;;;;5115329;28;20466;-75
2023/07/31 01:53:35;;;;;;;2.53;2.33;;;;;;;;;;5115258;28;20456;-76
2023/07/31 01:56:02;;;;;;;5.30;2.77;;;;;;;;;;5114952;28;20814;-76
2023/07/31 01:58:29;;;;;;;4.07;2.50;;;;;;;;;;5114955;28;20442;-76
2023/07/31 02:00:56;;;;;;;4.53;2.37;;;;;;;;;;5114949;28;20977;-76
2023/07/31 02:03:24;;;;;;;3.10;2.17;;;;;;;;;;5115125;28;20526;-76
2023/07/31 02:05:51;;;;;;;3.70;2.70;;;;;;;;;;5114331;28;20468;-76
2023/07/31 02:08:18;;;;;;;4.00;2.77;;;;;;;;;;5114782;28;20831;-76
2023/07/31 02:10:46;;;;;;;4.60;4.20;;;;;;;;;;5114684;28;20809;-76
2023/07/31 02:13:13;;;;;;;6.90;5.63;;;;;;;;;;5114872;28;20525;-76
2023/07/31 02:15:40;;;;;;;5.40;2.93;;;;;;;;;;5114706;28;20453;-76
2023/07/31 02:18:08;;;;;;;5.10;2.80;;;;;;;;;;5114597;28;20941;-76
2023/07/31 02:20:36;;;;;;;7.93;3.60;;;;;;;;;;5114631;28;20445;-76
2023/07/31 02:23:03;;;;;;;5.03;2.40;;;;;;;;;;5114909;28;20448;-75
2023/07/31 02:25:30;;;;;;;5.10;2.80;;;;;;;;;;5114585;28;20446;-75
2023/07/31 02:27:57;;;;;;;3.73;2.67;;;;;;;;;;5114089;28;20863;-76
2023/07/31 02:30:24;;;;;;;3.70;2.97;;;;;;;;;;5114433;28;20442;-76
2023/07/31 02:32:51;;;;;;;8.10;4.77;;;;;;;;;;5114243;28;20469;-76
2023/07/31 02:35:20;;;;;;;2.40;2.20;;;;;;;;;;5114452;28;20449;-76
2023/07/31 02:37:47;;;;;;;6.23;2.60;;;;;;;;;;5113978;28;20445;-75
2023/07/31 02:40:14;;;;;;;3.57;2.00;;;;;;;;;;5114251;28;20445;-75
2023/07/31 02:42:41;;;;;;;4.00;3.03;;;;;;;;;;5114015;28;20982;-76
2023/07/31 02:45:09;;;;;;;2.63;2.33;;;;;;;;;;5113707;28;20442;-76
2023/07/31 02:47:36;;;;;;;4.60;2.47;;;;;;;;;;5113981;28;20489;-76
2023/07/31 02:50:03;;;;;;;4.43;2.80;;;;;;;;;;5113920;28;20446;-76
2023/07/31 02:52:32;;;;;;;6.53;2.97;;;;;;;;;;5114067;28;20469;-76
2023/07/31 02:54:59;;;;;;;2.60;2.40;;;;;;;;;;5113871;28;20457;-76
2023/07/31 02:57:26;;;;;;;11.13;5.40;;;;;;;;;;5113851;28;20930;-75
2023/07/31 02:59:53;;;;;;;5.50;3.50;;;;;;;;;;5113739;28;20485;-76
2023/07/31 03:02:20;;;;;;;3.23;2.17;;;;;;;;;;5113835;28;20469;-74
2023/07/31 03:04:47;;;;;;;5.30;3.17;;;;;;;;;;5114005;28;20792;-75
2023/07/31 03:07:15;;;;;;;6.20;2.87;;;;;;;;;;5113582;28;20494;-74
2023/07/31 03:09:43;;;;;;;3.70;3.03;;;;;;;;;;5113661;28;20445;-76
2023/07/31 03:12:10;;;;;;;7.43;3.40;;;;;;;;;;5113704;28;20489;-76
2023/07/31 03:14:37;;;;;;;5.40;2.83;;;;;;;;;;5113742;28;20461;-76
2023/07/31 03:17:05;;;;;;;3.00;2.47;;;;;;;;;;5112879;28;20808;-76
2023/07/31 03:19:32;;;;;;;3.20;2.50;;;;;;;;;;5113761;28;20449;-76
2023/07/31 03:22:00;;;;;;;11.13;8.70;;;;;;;;;;5113586;28;20481;-76
2023/07/31 03:24:27;;;;;;;8.93;4.20;;;;;;;;;;5113550;28;20460;-75
2023/07/31 03:26:55;;;;;;;6.90;2.97;;;;;;;;;;5113529;28;20840;-76
2023/07/31 03:29:22;;;;;;;3.73;3.33;;;;;;;;;;5113441;28;20449;-76
2023/07/31 03:31:49;;;;;;;6.17;3.07;;;;;;;;;;5113273;28;20974;-76
2023/07/31 03:34:16;;;;;;;5.87;3.00;;;;;;;;;;5113536;28;20446;-75
2023/07/31 03:36:44;;;;;;;3.97;3.03;;;;;;;;;;5113300;28;20782;-76
2023/07/31 03:39:11;;;;;;;4.83;2.93;;;;;;;;;;5113175;28;20548;-75
2023/07/31 03:41:38;;;;;;;3.80;2.47;;;;;;;;;;5113651;28;20815;-76
2023/07/31 03:44:06;;;;;;;4.00;2.87;;;;;;;;;;5112807;28;20543;-75
2023/07/31 03:46:35;;;;;;;4.03;2.63;;;;;;;;;;5113142;28;20442;-75
2023/07/31 03:49:03;;;;;;;15.53;10.40;;;;;;;;;;5112668;28;20697;-75
2023/07/31 03:51:30;;;;;;;7.80;4.77;;;;;;;;;;5112494;28;20462;-76
2023/07/31 03:53:57;;;;;;;4.80;3.50;;;;;;;;;;5112446;28;20455;-76
2023/07/31 03:56:24;;;;;;;10.90;3.77;;;;;;;;;;5112465;28;20928;-75
2023/07/31 03:58:51;;;;;;;3.23;2.80;;;;;;;;;;5111939;28;20934;-75
2023/07/31 04:01:20;;;;;;;4.97;3.77;;;;;;;;;;5112454;28;20469;-75
2023/07/31 04:03:47;;;;;;;5.07;3.80;;;;;;;;;;5112183;28;20441;-75
2023/07/31 04:06:17;;;;;;;5.47;4.20;;;;;;;;;;5112321;28;20453;-75
2023/07/31 04:08:44;;;;;;;7.70;4.10;;;;;;;;;;5111867;28;21004;-75
2023/07/31 04:11:12;;;;;;;9.53;7.00;;;;;;;;;;5112237;28;20527;-74
2023/07/31 04:13:39;;;;;;;8.30;5.10;;;;;;;;;;5112203;28;20450;-76
2023/07/31 04:16:06;;;;;;;5.83;4.10;;;;;;;;;;5112093;28;20485;-76
2023/07/31 04:18:35;;;;;;;5.77;3.40;;;;;;;;;;5111433;28;20558;-77
2023/07/31 04:21:02;;;;;;;3.97;3.10;;;;;;;;;;5112045;28;20477;-76
2023/07/31 04:23:29;;;;;;;4.87;3.20;;;;;;;;;;5112010;28;20441;-76
2023/07/31 04:25:56;;;;;;;5.63;3.80;;;;;;;;;;5115604;28;20505;-74
2023/07/31 04:28:25;;;;;;;6.77;3.50;;;;;;;;;;5113579;28;20493;-75
2023/07/31 04:30:53;;;;;;;6.43;2.70;;;;;;;;;;5115485;28;20450;-76
2023/07/31 04:33:20;;;;;;;4.70;3.53;;;;;;;;;;5115844;28;20803;-76
2023/07/31 04:35:52;;;;;;;5.73;2.77;;;;;;;;;;5115476;28;20439;-76
2023/07/31 04:38:19;;;;;;;4.90;2.23;;;;;;;;;;5115656;28;20445;-76
2023/07/31 04:40:47;;;;;;;3.40;2.03;;;;;;;;;;5115131;28;20442;-76
2023/07/31 04:43:14;;;;;;;2.53;2.27;;;;;;;;;;5115861;28;20437;-76
2023/07/31 04:45:44;;;;;;;5.70;3.43;;;;;;;;;;5114976;28;20504;-76
2023/07/31 04:48:11;;;;;;;5.60;4.00;;;;;;;;;;5114952;28;20491;-76
2023/07/31 04:50:38;;;;;;;8.00;4.10;;;;;;;;;;5115245;28;20457;-76
2023/07/31 04:53:06;;;;;;;4.87;3.70;;;;;;;;;;5115382;28;20450;-76
2023/07/31 04:55:33;;;;;;;4.63;2.80;;;;;;;;;;5115370;28;20460;-76
2023/07/31 04:58:01;;;;;;;3.27;2.53;;;;;;;;;;5114807;28;20945;-76
2023/07/31 05:00:28;;;;;;;4.00;2.40;;;;;;;;;;5115277;28;20458;-76
2023/07/31 05:02:55;;;;;;;4.33;2.77;;;;;;;;;;5115006;28;20462;-76
2023/07/31 05:05:22;;;;;;;4.40;2.27;;;;;;;;;;5115021;28;20442;-76
2023/07/31 05:07:49;;;;;;;4.80;2.37;;;;;;;;;;5114640;28;20493;-76
2023/07/31 05:10:17;;;;;;;2.47;1.97;;;;;;;;;;5115005;28;20442;-76
2023/07/31 05:12:45;;;;;;;5.23;3.53;;;;;;;;;;5114678;28;21000;-76
2023/07/31 05:15:12;;;;;;;9.07;6.07;;;;;;;;;;5114825;28;20446;-77
2023/07/31 05:17:39;;;;;;;6.87;4.70;;;;;;;;;;5114789;28;20902;-77
2023/07/31 05:20:07;;;;;;;3.60;2.30;;;;;;;;;;5114747;28;20444;-77
2023/07/31 05:22:34;;;;;;;3.50;3.20;;;;;;;;;;5114690;28;20465;-77
2023/07/31 05:25:01;;;;;;;5.43;4.50;;;;;;;;;;5114636;28;20438;-76
2023/07/31 05:27:29;;;;;;;3.73;2.40;;;;;;;;;;5114290;28;20485;-77
2023/07/31 05:29:56;;;;;;;5.53;2.40;;;;;;;;;;5114424;28;20450;-76
2023/07/31 05:32:23;;;;;;;6.47;2.17;;;;;;;;;;5114246;28;20474;-76
2023/07/31 05:34:52;;;;;;;3.40;1.80;;;;;;;;;;5114595;28;20448;-75
2023/07/31 05:37:19;;;;;;;3.67;2.00;;;;;;;;;;5114367;28;20441;-75
2023/07/31 05:39:47;;;;;;;3.60;1.70;;;;;;;;;;5113201;28;20948;-75
2023/07/31 05:42:14;;;;;;;2.33;1.90;;;;;;;;;;5114293;28;20528;-75
2023/07/31 05:44:43;;;;;;;3.57;1.97;;;;;;;;;;5113973;28;20452;-75
2023/07/31 05:47:10;;;;;;;2.67;1.80;;;;;;;;;;5114201;28;20481;-75
2023/07/31 05:49:37;;;;;;;4.13;3.50;;;;;;;;;;5114297;28;20445;-75
2023/07/31 05:52:05;;;;;;;2.40;2.20;;;;;;;;;;5114213;28;20472;-75
2023/07/31 05:54:33;;;;;;;2.40;2.10;;;;;;;;;;5114179;28;20451;-75
2023/07/31 05:57:00;;;;;;;2.67;2.10;;;;;;;;;;5114251;28;20506;-74
2023/07/31 05:59:27;;;;;;;4.27;1.80;;;;;;;;;;5114101;28;20941;-76
2023/07/31 06:01:56;;;;;;;5.40;2.20;;;;;;;;;;5114093;28;20461;-76
2023/07/31 06:04:25;;;;;;;4.20;1.77;;;;;;;;;;5114272;28;20473;-75
2023/07/31 06:06:52;;;;;;;4.17;1.93;;;;;;;;;;5114327;28;20485;-74
2023/07/31 06:09:20;;;;;;;3.00;2.23;;;;;;;;;;5114251;28;20231;-76
2023/07/31 06:11:47;;;;;;;4.67;1.90;;;;;;;;;;5114049;28;20553;-76
2023/07/31 06:14:14;;;;;;;3.57;1.73;;;;;;;;;;5114699;28;20686;-76
2023/07/31 06:16:41;;;;;;;2.80;1.50;;;;;;;;;;5114294;28;20211;-76
2023/07/31 06:19:10;;;;;;;6.23;2.43;;;;;;;;;;5113696;28;20213;-76
2023/07/31 06:24:40;;;;;;;2.40;1.77;;;;;;;;;;5113807;28;20534;-76
2023/07/31 06:27:07;;;;;;;3.33;2.33;;;;;;;;;;5114168;28;20214;-76
2023/07/31 06:29:35;;;;;;;3.77;2.13;;;;;;;;;;5113655;28;20219;-76
2023/07/31 06:32:02;;;;;;;3.17;1.93;;;;;;;;;;5113970;28;20238;-76
2023/07/31 06:34:31;;;;;;;2.57;1.70;;;;;;;;;;5113613;28;20218;-76
2023/07/31 06:36:58;;;;;;;3.30;1.90;;;;;;;;;;5113683;28;20615;-76
2023/07/31 06:39:25;;;;;;;3.63;1.77;;;;;;;;;;5113533;28;20223;-76
2023/07/31 06:41:52;;;;;;;4.32;1.70;;;;;;;;;;5113567;28;20227;-77
2023/07/31 06:44:21;;;;;;;2.13;1.63;;;;;;;;;;5112850;28;20211;-76
2023/07/31 06:46:48;;;;;;;3.37;1.73;;;;;;;;;;5113579;28;20206;-76
2023/07/31 06:49:15;;;;;;;3.53;1.83;;;;;;;;;;5113226;28;20231;-76
2023/07/31 06:51:44;;;;;;;3.67;1.80;;;;;;;;;;5113389;28;20533;-76
2023/07/31 06:54:12;;;;;;;1.97;1.43;;;;;;;;;;5113408;28;20452;-75
2023/07/31 06:56:39;;;;;;;3.23;1.80;;;;;;;;;;5113363;28;20440;-76
2023/07/31 06:59:06;;;;;;;4.13;2.37;;;;;;;;;;5112885;28;20945;-76
2023/07/31 07:01:33;;;;;;;3.80;1.90;;;;;;;;;;5113334;28;20548;-76
2023/07/31 07:04:00;;;;;;;6.20;2.30;;;;;;;;;;5113765;28;20445;-75
2023/07/31 07:06:27;;;;;;;5.20;1.80;;;;;;;;;;5113322;28;20440;-75
2023/07/31 07:08:56;;;;;;;3.07;2.60;;;;;;;;;;5112509;28;20488;-76
2023/07/31 07:11:23;;;;;;;3.40;1.90;;;;;;;;;;5112571;28;20465;-76
2023/07/31 07:13:50;;;;;;;8.83;1.70;;;;;;;;;;5112589;28;20553;-76
2023/07/31 07:16:17;;;;;;;2.50;1.60;;;;;;;;;;5112492;28;20437;-75
2023/07/31 07:18:45;;;;;;;4.20;1.60;;;;;;;;;;5112026;28;20445;-76
2023/07/31 07:21:15;;;;;;;3.10;2.20;;;;;;;;;;5112545;28;20481;-76
2023/07/31 07:23:42;;;;;;;5.60;2.20;;;;;;;;;;5112520;28;20446;-76
2023/07/31 07:26:11;;;;;;;2.43;2.20;;;;;;;;;;5112743;28;20545;-76
2023/07/31 07:28:38;;;;;;;2.43;2.07;;;;;;;;;;5112215;28;20495;-75
2023/07/31 07:31:05;;;;;;;2.47;1.90;;;;;;;;;;5112501;28;20470;-75
2023/07/31 07:33:32;;;;;;;3.60;1.67;;;;;;;;;;5112548;28;20452;-75
2023/07/31 07:36:01;;;;;;;3.00;2.37;;;;;;;;;;5112651;28;20446;-76
2023/07/31 07:38:28;;;;;;;3.30;2.37;;;;;;;;;;5112187;28;20437;-76
2023/07/31 07:40:55;;;;;;;5.30;2.10;;;;;;;;;;5112438;28;20461;-76
2023/07/31 07:43:24;;;;;;;3.43;1.50;;;;;;;;;;5112670;28;20972;-76
2023/07/31 07:45:51;;;;;;;2.47;1.67;;;;;;;;;;5112206;28;20449;-76
2023/07/31 07:48:18;;;;;;;5.47;1.90;;;;;;;;;;5112186;28;20473;-75
2023/07/31 07:50:45;;;;;;;4.23;1.77;;;;;;;;;;5112269;28;20872;-75
2023/07/31 07:53:13;;;;;;;2.90;1.80;;;;;;;;;;5112567;28;20453;-75
2023/07/31 07:55:40;;;;;;;2.97;1.90;;;;;;;;;;5112321;28;20454;-75
2023/07/31 07:58:07;;;;;;;2.77;1.70;;;;;;;;;;5112276;28;20442;-75
2023/07/31 08:00:36;;;;;;;3.43;2.10;;;;;;;;;;5112218;28;20961;-75
2023/07/31 08:03:03;;;;;;;5.83;2.00;;;;;;;;;;5113848;28;20540;-75
2023/07/31 08:05:33;;;;;;;3.50;1.70;;;;;;;;;;5116728;28;20827;-75
2023/07/31 08:08:01;;;;;;;2.90;2.10;;;;;;;;;;5116033;28;20520;-75
2023/07/31 08:10:28;;;;;;;4.20;2.50;;;;;;;;;;5116306;28;20447;-76
2023/07/31 08:12:55;;;;;;;7.07;2.23;;;;;;;;;;5116057;28;20607;-76
2023/07/31 08:15:22;;;;;;;5.30;2.20;;;;;;;;;;5116410;28;20445;-75
2023/07/31 08:17:50;;;;;;;2.97;1.70;;;;;;;;;;5115861;28;21116;-75
2023/07/31 08:20:18;;;;;;;2.80;2.13;;;;;;;;;;5116085;28;20445;-75
2023/07/31 08:22:45;;;;;;;3.13;1.80;;;;;;;;;;5116116;28;20465;-75
2023/07/31 08:25:12;;;;;;;4.90;1.80;;;;;;;;;;5116352;28;20817;-76
2023/07/31 08:27:39;;;;;;;2.80;1.90;;;;;;;;;;5115923;28;20458;-75
2023/07/31 08:30:07;;;;;;;3.43;2.00;;;;;;;;;;5115772;28;21042;-75
2023/07/31 08:32:34;;;;;;;2.93;1.70;;;;;;;;;;5115905;28;20465;-75
2023/07/31 08:35:02;;;;;;;3.23;2.27;;;;;;;;;;5115672;28;20441;-75
2023/07/31 08:37:30;;;;;;;2.77;2.10;;;;;;;;;;5115745;28;20535;-75
2023/07/31 08:39:58;;;;;;;3.53;1.80;;;;;;;;;;5115727;28;20814;-75
2023/07/31 08:42:25;;;;;;;4.40;2.37;;;;;;;;;;5115613;28;20572;-75
2023/07/31 08:44:53;;;;;;;6.60;2.30;;;;;;;;;;5115317;28;20445;-75
2023/07/31 08:47:22;;;;;;;4.10;1.80;;;;;;;;;;5115321;28;20453;-75
2023/07/31 08:49:49;;;;;;;2.70;1.90;;;;;;;;;;5115445;28;20485;-75
2023/07/31 08:52:17;;;;;;;6.60;2.03;;;;;;;;;;5115664;28;20465;-75
2023/07/31 08:54:44;;;;;;;2.60;1.80;;;;;;;;;;5115344;28;20953;-75
2023/07/31 08:57:12;;;;;;;2.10;1.57;;;;;;;;;;5115352;28;20774;-75
2023/07/31 08:59:40;;;;;;;2.20;1.60;;;;;;;;;;5115147;28;20454;-75
2023/07/31 09:02:09;;;;;;;2.80;1.80;;;;;;;;;;5115089;28;20465;-75
2023/07/31 09:04:36;;;;;;;2.33;1.60;;;;;;;;;;5115393;28;20449;-75
2023/07/31 09:07:04;;;;;;;2.77;1.87;;;;;;;;;;5114993;28;20446;-75
2023/07/31 09:09:33;;;;;;;2.93;1.70;;;;;;;;;;5115199;28;20493;-75
2023/07/31 09:12:00;;;;;;;2.40;2.17;;;;;;;;;;5115274;28;20457;-75
2023/07/31 09:14:27;;;;;;;3.83;1.70;;;;;;;;;;5113753;28;20457;-75
2023/07/31 09:16:55;;;;;;;3.87;2.13;;;;;;;;;;5115058;28;20450;-75
2023/07/31 09:19:29;;;;;;;4.27;2.10;;;;;;;;;;5114979;28;20456;-75
2023/07/31 09:21:56;;;;;;;4.70;2.40;;;;;;;;;;5114771;28;20485;-75
2023/07/31 09:24:27;;;;;;;2.93;1.80;;;;;;;;;;5114862;28;20472;-75
2023/07/31 09:26:56;;;;;;;3.80;2.00;;;;;;;;;;5114875;28;20986;-76
2023/07/31 09:29:24;;;;;;;8.73;2.20;;;;;;;;;;5114738;28;20485;-75
2023/07/31 09:31:52;;;;;;;3.80;1.87;;;;;;;;;;5114893;28;21054;-75
2023/07/31 09:34:19;;;;;;;3.37;1.70;;;;;;;;;;5114903;28;20960;-75
2023/07/31 09:36:46;;;;;;;2.97;1.77;;;;;;;;;;5114686;28;20449;-76
2023/07/31 09:39:15;;;;;;;3.97;2.30;;;;;;;;;;5114630;28;20926;-75
2023/07/31 09:41:43;;;;;;;3.10;2.27;;;;;;;;;;5114354;28;20836;-76
2023/07/31 09:44:12;;;;;;;4.40;2.10;;;;;;;;;;5114324;28;20778;-75
2023/07/31 09:46:39;;;;;;;3.80;2.40;;;;;;;;;;5114299;28;20450;-76
2023/07/31 09:49:08;;;;;;;3.57;1.80;;;;;;;;;;5114019;28;20481;-75
2023/07/31 09:51:38;;;;;;;3.47;2.30;;;;;;;;;;5114453;28;20997;-76
2023/07/31 09:54:05;;;;;;;3.57;2.37;;;;;;;;;;5114589;28;20453;-74
2023/07/31 09:56:34;;;;;;;3.23;2.50;;;;;;;;;;5114516;28;20456;-76
2023/07/31 09:59:01;;;;;;;3.23;2.70;;;;;;;;;;5113771;28;20453;-76
2023/07/31 10:01:29;;;;;;;3.70;1.90;;;;;;;;;;5113990;28;20553;-76
2023/07/31 10:03:57;;;;;;;7.03;2.37;;;;;;;;;;5113891;28;20450;-76
2023/07/31 10:06:25;;;;;;;3.40;2.90;;;;;;;;;;5114272;28;20445;-74
2023/07/31 10:08:53;;;;;;;4.67;2.90;;;;;;;;;;5113592;28;20500;-75
2023/07/31 10:11:20;;;;;;;4.60;2.50;;;;;;;;;;5114209;28;20470;-75
2023/07/31 10:13:48;;;;;;;2.90;2.60;;;;;;;;;;5113882;28;20452;-76
2023/07/31 10:16:16;;;;;;;5.67;4.40;;;;;;;;;;5114063;28;20949;-75
2023/07/31 10:18:45;;;;;;;5.10;2.17;;;;;;;;;;5113526;28;20450;-77
2023/07/31 10:21:12;;;;;;;2.50;2.10;;;;;;;;;;5113741;28;20470;-75
2023/07/31 10:23:40;;;;;;;5.00;3.00;;;;;;;;;;5113646;28;20452;-75
2023/07/31 10:26:09;;;;;;;3.20;2.30;;;;;;;;;;5113436;28;20461;-74
2023/07/31 10:28:37;;;;;;;2.97;2.03;;;;;;;;;;5113512;28;20441;-74
2023/07/31 10:31:05;;;;;;;3.80;2.80;;;;;;;;;;5113465;28;20466;-75
2023/07/31 10:33:33;;;;;;;3.60;2.07;;;;;;;;;;5114119;28;20445;-74
2023/07/31 10:36:18;;;;;;;4.20;2.30;;;;;;;;;;5113442;28;20533;-74
2023/07/31 10:38:45;;;;;;;4.23;2.83;;;;;;;;;;5113287;28;20493;-74
2023/07/31 10:41:12;;;;;;;5.13;2.67;;;;;;;;;;5113326;28;20967;-74
2023/07/31 10:43:40;;;;;;;5.77;2.63;;;;;;;;;;5112915;28;20449;-75
2023/07/31 10:46:10;;;;;;;3.97;2.23;;;;;;;;;;5113245;28;20446;-74
2023/07/31 10:48:41;;;;;;;2.83;2.13;;;;;;;;;;5113050;28;20438;-74
2023/07/31 10:51:09;;;;;;;2.47;2.27;;;;;;;;;;5113313;28;20809;-75
2023/07/31 10:53:38;;;;;;;5.30;2.17;;;;;;;;;;5113331;28;20871;-76
2023/07/31 10:56:06;;;;;;;3.50;2.40;;;;;;;;;;5113254;28;20928;-75
2023/07/31 10:58:34;;;;;;;2.50;2.30;;;;;;;;;;5112666;28;20453;-75
2023/07/31 11:01:02;;;;;;;2.70;2.50;;;;;;;;;;5112963;28;20962;-76
2023/07/31 11:03:42;;;;;;;3.00;2.70;;;;;;;;;;5112939;28;20498;-75
2023/07/31 11:06:09;;;;;;;4.33;2.87;;;;;;;;;;5113218;28;20812;-76
2023/07/31 11:08:44;;;;;;;2.67;2.23;;;;;;;;;;5112910;28;20540;-76
2023/07/31 11:11:12;;;;;;;2.50;1.90;;;;;;;;;;5112764;28;20497;-77
2023/07/31 11:13:44;;;;;;;3.90;2.20;;;;;;;;;;5113019;28;20452;-76
2023/07/31 11:16:11;;;;;;;3.20;2.20;;;;;;;;;;5113026;28;20449;-77
2023/07/31 11:18:40;;;;;;;7.70;2.43;;;;;;;;;;5112784;28;20450;-76
2023/07/31 11:21:07;;;;;;;4.30;2.50;;;;;;;;;;5112609;28;20461;-77
2023/07/31 11:23:34;;;;;;;3.20;2.70;;;;;;;;;;5112889;28;20441;-77
2023/07/31 11:26:03;;;;;;;3.13;2.20;;;;;;;;;;5112543;28;20441;-76
2023/07/31 11:28:33;;;;;;;4.47;2.23;;;;;;;;;;5112618;28;20792;-76
2023/07/31 11:31:01;;;;;;;4.77;2.37;;;;;;;;;;5112431;28;20493;-76
2023/07/31 11:33:28;;;;;;;4.70;2.27;;;;;;;;;;5112849;28;20441;-76
2023/07/31 11:35:55;;;;;;;3.67;2.20;;;;;;;;;;5112584;28;20461;-76
2023/07/31 11:38:23;;;;;;;7.70;2.63;;;;;;;;;;5111366;28;20449;-76
2023/07/31 11:40:51;;;;;;;3.73;2.40;;;;;;;;;;5112392;28;20482;-75
2023/07/31 11:43:23;;;;;;;2.60;2.13;;;;;;;;;;5112453;28;20468;-76
2023/07/31 11:45:50;;;;;;;2.83;2.37;;;;;;;;;;5112502;28;20456;-76
2023/07/31 11:48:22;;;;;;;4.30;2.23;;;;;;;;;;5112499;28;20444;-76
2023/07/31 11:50:50;;;;;;;4.50;2.67;;;;;;;;;;5112348;28;20601;-76
2023/07/31 11:53:18;;;;;;;4.17;2.17;;;;;;;;;;5112558;28;20477;-76
2023/07/31 11:55:46;;;;;;;6.70;4.30;;;;;;;;;;5112583;28;20949;-76
2023/07/31 11:58:15;;;;;;;2.90;2.40;;;;;;;;;;5112403;28;20476;-76
2023/07/31 12:00:43;;;;;;;3.47;2.07;;;;;;;;;;5112018;28;20970;-76
2023/07/31 12:03:11;;;;;;;2.80;2.60;;;;;;;;;;5112109;28;20907;-76
2023/07/31 12:05:39;;;;;;;2.87;2.43;;;;;;;;;;5112251;28;20454;-76
2023/07/31 12:08:10;;;;;;;2.77;1.80;;;;;;;;;;5112020;28;20457;-76
2023/07/31 12:10:38;;;;;;;7.73;2.90;;;;;;;;;;5112123;28;20485;-76
2023/07/31 12:13:05;;;;;;;4.53;2.40;;;;;;;;;;5112192;28;20444;-76
2023/07/31 12:15:36;;;;;;;4.77;2.60;;;;;;;;;;5112233;28;20468;-76
2023/07/31 12:18:07;;;;;;;4.03;2.23;;;;;;;;;;5111956;28;20469;-76
2023/07/31 12:20:34;;;;;;;3.57;2.40;;;;;;;;;;5112196;28;20442;-76
2023/07/31 12:23:02;;;;;;;4.20;2.00;;;;;;;;;;5112087;28;20441;-75
2023/07/31 12:25:33;;;;;;;5.23;2.30;;;;;;;;;;5112625;28;20549;-76
2023/07/31 12:28:05;;;;;;;4.70;2.50;;;;;;;;;;5111697;28;20916;-76
2023/07/31 12:30:34;;;;;;;2.40;2.00;;;;;;;;;;5112109;28;20481;-76
2023/07/31 12:33:04;;;;;;;3.33;2.57;;;;;;;;;;5112074;28;20511;-76
2023/07/31 12:35:37;;;;;;;2.43;1.97;;;;;;;;;;5112240;28;20926;-76
2023/07/31 12:38:05;;;;;;;4.03;2.37;;;;;;;;;;5111727;28;20941;-76
2023/07/31 12:40:34;;;;;;;6.40;2.73;;;;;;;;;;5111988;28;20438;-76
2023/07/31 12:43:03;;;;;;;3.70;2.40;;;;;;;;;;5111790;28;20465;-76
2023/07/31 12:45:48;;;;;;;4.87;2.20;;;;;;;;;;5112174;28;20467;-76
2023/07/31 12:48:21;;;;;;;2.90;2.37;;;;;;;;;;5112553;28;20773;-76
2023/07/31 12:50:49;;;;;;;4.07;2.40;;;;;;;;;;5116404;28;20962;-76
2023/07/31 12:53:17;;;;;;;2.63;2.33;;;;;;;;;;5115790;28;20449;-76
2023/07/31 12:55:44;;;;;;;7.20;3.20;;;;;;;;;;5115552;28;20449;-77
2023/07/31 12:58:11;;;;;;;3.60;2.47;;;;;;;;;;5115858;28;20476;-76
2023/07/31 13:00:38;;;;;;;3.30;2.70;;;;;;;;;;5115351;28;20445;-76
2023/07/31 13:03:05;;;;;;;3.20;2.20;;;;;;;;;;5115899;28;20457;-76
2023/07/31 13:05:32;;;;;;;6.13;2.93;;;;;;;;;;5117824;28;20493;-81
2023/07/31 13:08:01;;;;;;;5.80;2.80;;;;;;;;;;5121941;28;20450;-82
2023/07/31 13:10:29;;;;;;;3.20;2.30;;;;;;;;;;5120063;28;20477;-82
2023/07/31 13:12:56;;;;;;;2.50;1.87;;;;;;;;;;5120050;28;20484;-81
2023/07/31 13:15:24;;;;;;;3.40;2.00;;;;;;;;;;5120309;28;20442;-81
2023/07/31 13:17:51;;;;;;;5.63;3.20;;;;;;;;;;5120448;28;20945;-82
2023/07/31 13:20:18;;;;;;;4.07;3.07;;;;;;;;;;5119819;28;20454;-82
2023/07/31 13:22:45;;;;;;;3.53;2.33;;;;;;;;;;5120901;28;20462;-81
2023/07/31 13:25:14;;;;;;;6.13;2.67;;;;;;;;;;5120471;28;20521;-83
2023/07/31 13:27:41;;;;;;;2.83;2.30;;;;;;;;;;5120129;28;20805;-83
2023/07/31 13:30:08;;;;;;;3.67;2.40;;;;;;;;;;5121912;28;20477;-84
2023/07/31 13:32:38;;;;;;;5.43;2.70;;;;;;;;;;5120439;28;20500;-83
2023/07/31 13:35:06;;;;;;;4.13;3.03;;;;;;;;;;5125241;27;20885;-84
2023/07/31 13:37:33;;;;;;;2.47;2.27;;;;;;;;;;5141325;27;20467;-84
2023/07/31 13:40:00;;;;;;;3.07;2.27;;;;;;;;;;5141681;27;20508;-85
2023/07/31 13:42:29;;;;;;;3.43;3.13;;;;;;;;;;5140405;27;20457;-84
2023/07/31 13:44:56;;;;;;;4.40;2.63;;;;;;;;;;5139604;27;20949;-84
2023/07/31 13:47:23;;;;;;;4.90;3.43;;;;;;;;;;5139990;27;20843;-84
2023/07/31 13:49:51;;;;;;;6.30;3.30;;;;;;;;;;5136897;27;20866;-82
2023/07/31 13:52:18;;;;;;;4.60;2.87;;;;;;;;;;5098265;28;20493;-83
2023/07/31 13:54:45;;;;;;;2.70;2.27;;;;;;;;;;5099352;28;20653;-82
2023/07/31 13:57:12;;;;;;;3.03;2.13;;;;;;;;;;5100535;28;20543;-82
2023/07/31 13:59:41;;;;;;;3.80;2.70;;;;;;;;;;5102246;28;20458;-81
2023/07/31 14:02:08;;;;;;;3.30;2.30;;;;;;;;;;5098566;28;20561;-84
2023/07/31 14:04:35;;;;;;;4.60;2.80;;;;;;;;;;5099515;28;20476;-82
2023/07/31 14:07:03;;;;;;;3.80;2.97;;;;;;;;;;5098256;28;20947;-83
2023/07/31 14:09:30;;;;;;;10.33;3.37;;;;;;;;;;5099484;28;20457;-82
2023/07/31 14:11:57;;;;;;;12.33;4.00;;;;;;;;;;5097394;28;20488;-81
2023/07/31 14:14:24;;;;;;;4.53;2.30;;;;;;;;;;5100545;28;20443;-85
2023/07/31 14:16:53;;;;;;;4.00;3.20;;;;;;;;;;5099581;28;20435;-83
2023/07/31 14:19:20;;;;;;;6.40;2.03;;;;;;;;;;5098700;28;20449;-82
2023/07/31 14:21:47;;;;;;;3.10;2.30;;;;;;;;;;5098449;28;20836;-83
2023/07/31 14:24:14;;;;;;;4.73;2.50;;;;;;;;;;5098913;28;20458;-84
2023/07/31 14:26:41;;;;;;;4.23;2.77;;;;;;;;;;5097667;28;20447;-79
2023/07/31 14:29:08;;;;;;;3.77;2.30;;;;;;;;;;5098018;28;20455;-83
2023/07/31 14:31:35;;;;;;;3.17;2.30;;;;;;;;;;5098957;28;20513;-82
2023/07/31 14:34:04;;;;;;;4.80;2.73;;;;;;;;;;5097951;28;20455;-84
2023/07/31 14:36:31;;;;;;;7.43;3.13;;;;;;;;;;5099736;28;20819;-84
2023/07/31 14:38:58;;;;;;;6.60;2.77;;;;;;;;;;5098365;28;20454;-84
2023/07/31 14:41:26;;;;;;;4.70;2.63;;;;;;;;;;5098640;28;20471;-84
2023/07/31 14:43:53;;;;;;;3.33;2.60;;;;;;;;;;5097727;28;20451;-84
2023/07/31 14:46:20;;;;;;;3.17;2.20;;;;;;;;;;5098914;28;20518;-83
2023/07/31 14:48:47;;;;;;;5.40;2.50;;;;;;;;;;5097306;28;20493;-82
2023/07/31 14:51:17;;;;;;;4.13;2.57;;;;;;;;;;5098050;28;20608;-84
2023/07/31 14:53:44;;;;;;;4.90;3.60;;;;;;;;;;5097704;28;20574;-83